Time;durP1;ratioP1;P1;durP2;ratioP2;P2;SDS_P1;SDS_P2;PMS_P1;PMS_P2;Temp;Humidity;BMP_temperature;BMP_pressure;BME280_temperature;BME280_humidity;BME280_pressure;Samples;Min_cycle;Max_cycle;Signal;HPM_P1;HPM_P2
2023/08/07 00:00:42;;;;;;;4.93;0.85;;;14.70;99.90;;;;;;5001543;28;20040;-88
2023/08/07 00:03:07;;;;;;;1.98;0.80;;;14.70;99.90;;;;;;5001582;28;20113;-91
2023/08/07 00:05:33;;;;;;;1.95;0.52;;;14.70;99.90;;;;;;5001461;28;20396;-89
2023/08/07 00:07:59;;;;;;;1.77;0.70;;;14.60;99.90;;;;;;4984761;28;20026;-89
2023/08/07 00:10:24;;;;;;;2.65;0.70;;;14.70;99.90;;;;;;5000725;28;20054;-90
2023/08/07 00:12:50;;;;;;;1.27;0.52;;;14.60;99.90;;;;;;4999536;28;20026;-89
2023/08/07 00:15:16;;;;;;;3.35;0.80;;;14.60;99.90;;;;;;5001414;28;20526;-89
2023/08/07 00:17:41;;;;;;;1.15;0.70;;;14.60;99.90;;;;;;5001044;28;20455;-88
2023/08/07 00:20:07;;;;;;;3.05;0.63;;;14.60;99.90;;;;;;5005614;28;20030;-89
2023/08/07 00:22:33;;;;;;;2.63;0.80;;;14.60;99.90;;;;;;4980213;28;20475;-90
2023/08/07 00:24:59;;;;;;;5.55;0.60;;;14.60;99.90;;;;;;4980362;28;20033;-92
2023/08/07 00:27:25;;;;;;;2.92;0.68;;;14.60;99.90;;;;;;4998294;28;20455;-89
2023/08/07 00:29:51;;;;;;;2.53;0.80;;;14.60;99.90;;;;;;4997312;28;20019;-89
2023/08/07 00:32:17;;;;;;;1.63;0.60;;;14.60;99.90;;;;;;4996862;28;20030;-90
2023/08/07 00:34:42;;;;;;;1.45;0.68;;;14.60;99.90;;;;;;4995976;28;20026;-88
2023/08/07 00:37:08;;;;;;;5.32;2.35;;;14.60;99.90;;;;;;4980365;28;20493;-88
2023/08/07 00:39:33;;;;;;;2.78;0.90;;;14.60;99.90;;;;;;4997475;28;20027;-89
2023/08/07 00:41:59;;;;;;;1.58;0.60;;;14.50;99.90;;;;;;4997841;28;20447;-89
2023/08/07 00:44:25;;;;;;;2.60;0.55;;;14.50;99.90;;;;;;4977109;28;20518;-89
2023/08/07 00:46:51;;;;;;;2.22;0.63;;;14.50;99.90;;;;;;4993527;28;20058;-89
2023/08/07 00:49:18;;;;;;;1.50;0.70;;;14.50;99.90;;;;;;4993805;28;20026;-88
2023/08/07 00:51:44;;;;;;;1.20;0.68;;;14.50;99.90;;;;;;4993171;28;20066;-86
2023/08/07 00:54:14;;;;;;;1.42;0.77;;;14.50;99.90;;;;;;4977279;28;20439;-88
2023/08/07 00:56:40;;;;;;;0.90;0.57;;;14.50;99.90;;;;;;4992927;28;20027;-88
2023/08/07 00:59:06;;;;;;;1.27;0.52;;;14.50;99.90;;;;;;4993395;28;20031;-88
2023/08/07 01:01:32;;;;;;;0.90;0.60;;;14.50;99.90;;;;;;4993345;28;20081;-85
2023/08/07 01:03:58;;;;;;;3.17;0.60;;;14.50;99.90;;;;;;4976695;28;20030;-85
2023/08/07 01:06:24;;;;;;;2.55;0.60;;;14.50;99.90;;;;;;4977814;28;20109;-85
2023/08/07 01:08:50;;;;;;;2.83;0.80;;;14.50;99.90;;;;;;4992817;28;20058;-87
2023/08/07 01:11:44;;;;;;;5.15;0.73;;;14.40;99.90;;;;;;4977883;28;20035;-86
2023/08/07 01:14:28;;;;;;;2.13;1.10;;;14.40;99.90;;;;;;4993016;28;20073;-87
2023/08/07 01:17:03;;;;;;;2.95;0.60;;;14.40;99.90;;;;;;4992220;28;20037;-86
2023/08/07 01:19:30;;;;;;;3.45;0.65;;;14.40;99.90;;;;;;4977946;28;20065;-86
2023/08/07 01:22:12;;;;;;;2.92;0.70;;;14.40;99.90;;;;;;4977417;28;20066;-86
2023/08/07 01:24:43;;;;;;;2.45;0.70;;;14.40;99.90;;;;;;4979470;28;20039;-86
2023/08/07 01:27:18;;;;;;;6.07;0.80;;;14.40;99.90;;;;;;4973750;28;20032;-87
2023/08/07 01:30:06;;;;;;;2.25;0.75;;;14.40;99.90;;;;;;4956932;28;20058;-87
2023/08/07 01:32:42;;;;;;;2.20;0.60;;;14.40;99.90;;;;;;4957228;29;20059;-87
2023/08/07 01:35:11;;;;;;;4.18;0.90;;;14.40;99.90;;;;;;4957493;29;20046;-87
2023/08/07 01:37:41;;;;;;;1.17;0.63;;;14.40;99.90;;;;;;4972815;28;20031;-87
2023/08/07 01:40:08;;;;;;;1.75;0.93;;;14.30;99.90;;;;;;4973013;28;20469;-88
2023/08/07 01:42:35;;;;;;;2.25;0.93;;;14.30;99.90;;;;;;4972819;28;20027;-89
2023/08/07 01:45:00;;;;;;;2.72;0.80;;;14.30;99.90;;;;;;4973394;28;20481;-87
2023/08/07 01:47:26;;;;;;;1.70;0.80;;;14.20;99.90;;;;;;4959769;28;20038;-84
2023/08/07 01:49:51;;;;;;;3.60;0.85;;;14.20;99.90;;;;;;4959431;28;20031;-88
2023/08/07 01:52:17;;;;;;;2.55;0.77;;;14.10;99.90;;;;;;4959989;28;20077;-88
2023/08/07 01:54:43;;;;;;;2.78;0.68;;;14.10;99.90;;;;;;4959227;28;20468;-84
2023/08/07 01:57:08;;;;;;;1.30;0.70;;;14.10;99.90;;;;;;4977029;28;20030;-86
2023/08/07 01:59:34;;;;;;;1.45;0.70;;;14.20;99.90;;;;;;4959784;28;20085;-84
2023/08/07 02:01:59;;;;;;;2.47;0.70;;;14.10;99.90;;;;;;4976798;28;20066;-84
2023/08/07 02:04:25;;;;;;;2.20;0.77;;;14.10;99.90;;;;;;4959947;28;20054;-85
2023/08/07 02:06:50;;;;;;;5.20;1.33;;;14.10;99.90;;;;;;4976321;28;20378;-84
2023/08/07 02:09:16;;;;;;;2.85;0.80;;;14.00;99.90;;;;;;4959107;28;20027;-84
2023/08/07 02:11:42;;;;;;;4.72;1.00;;;14.10;99.90;;;;;;4976204;28;20035;-84
2023/08/07 02:14:08;;;;;;;2.67;0.82;;;14.00;99.90;;;;;;4959865;28;20419;-86
2023/08/07 02:16:34;;;;;;;2.13;0.90;;;14.00;99.90;;;;;;4959862;28;20034;-85
2023/08/07 02:18:59;;;;;;;4.68;1.20;;;14.00;99.90;;;;;;4958962;28;20451;-85
2023/08/07 02:21:25;;;;;;;1.40;0.77;;;14.00;99.90;;;;;;4959275;28;20031;-86
2023/08/07 02:23:50;;;;;;;5.07;1.08;;;14.00;99.90;;;;;;4958606;28;20045;-86
2023/08/07 02:26:16;;;;;;;3.80;0.80;;;13.90;99.90;;;;;;4959172;28;20070;-87
2023/08/07 02:28:41;;;;;;;1.40;0.70;;;13.90;99.90;;;;;;4975681;28;20117;-85
2023/08/07 02:31:07;;;;;;;1.88;0.90;;;13.90;99.90;;;;;;4959110;28;20035;-86
2023/08/07 02:33:32;;;;;;;5.15;0.90;;;13.90;99.90;;;;;;4959079;28;20038;-86
2023/08/07 02:35:58;;;;;;;3.50;1.10;;;13.80;99.90;;;;;;4975965;28;20088;-86
2023/08/07 02:38:25;;;;;;;2.88;0.90;;;13.90;99.90;;;;;;4976184;28;20023;-86
2023/08/07 02:40:50;;;;;;;1.60;0.60;;;13.80;99.90;;;;;;4958757;28;20026;-86
2023/08/07 02:43:16;;;;;;;1.85;0.85;;;13.80;99.90;;;;;;4958856;28;20034;-85
2023/08/07 02:45:41;;;;;;;2.80;0.73;;;13.80;99.90;;;;;;4958715;28;20650;-84
2023/08/07 02:48:07;;;;;;;3.17;0.70;;;13.80;99.90;;;;;;4958850;28;20038;-86
2023/08/07 02:50:32;;;;;;;3.38;0.90;;;13.80;99.90;;;;;;4959027;28;20494;-84
2023/08/07 02:52:59;;;;;;;4.13;0.95;;;13.80;99.90;;;;;;4975282;28;20031;-85
2023/08/07 02:55:25;;;;;;;4.88;0.90;;;13.70;99.90;;;;;;4958603;28;20038;-86
2023/08/07 02:57:50;;;;;;;1.67;0.68;;;13.70;99.90;;;;;;4958421;28;20031;-84
2023/08/07 03:00:16;;;;;;;2.97;0.80;;;13.70;99.90;;;;;;4958914;28;20077;-84
2023/08/07 03:02:41;;;;;;;2.65;0.75;;;13.70;99.90;;;;;;4975399;28;20031;-85
2023/08/07 03:05:08;;;;;;;7.30;0.90;;;13.60;99.90;;;;;;4958258;28;20031;-85
2023/08/07 03:07:33;;;;;;;5.63;0.98;;;13.50;99.90;;;;;;4958177;28;20476;-85
2023/08/07 03:09:59;;;;;;;1.90;0.65;;;13.50;99.90;;;;;;4957999;28;20037;-86
2023/08/07 03:12:24;;;;;;;1.90;0.80;;;13.50;99.90;;;;;;4958320;28;20491;-87
2023/08/07 03:14:50;;;;;;;2.58;0.77;;;13.50;99.90;;;;;;4958154;28;20066;-88
2023/08/07 03:17:16;;;;;;;3.22;0.80;;;13.40;99.90;;;;;;4958589;28;20038;-87
2023/08/07 03:19:43;;;;;;;2.97;1.13;;;13.40;99.90;;;;;;4958240;28;20027;-85
2023/08/07 03:22:09;;;;;;;4.43;0.90;;;13.40;99.90;;;;;;4957370;28;20026;-86
2023/08/07 03:24:35;;;;;;;3.35;1.02;;;13.40;99.90;;;;;;4975053;28;20113;-85
2023/08/07 03:27:00;;;;;;;3.53;0.80;;;13.30;99.90;;;;;;4957973;28;20641;-85
2023/08/07 03:29:26;;;;;;;1.20;0.77;;;13.30;99.90;;;;;;4958168;28;20101;-86
2023/08/07 03:31:52;;;;;;;3.15;0.80;;;13.40;99.90;;;;;;4957649;28;20035;-86
2023/08/07 03:34:17;;;;;;;3.17;0.75;;;13.40;99.90;;;;;;4974852;28;20542;-87
2023/08/07 03:36:44;;;;;;;3.10;0.77;;;13.40;99.90;;;;;;4975082;28;20085;-85
2023/08/07 03:39:11;;;;;;;1.60;0.90;;;13.40;99.90;;;;;;4958341;28;20045;-87
2023/08/07 03:41:37;;;;;;;1.58;0.70;;;13.40;99.90;;;;;;4975339;28;20033;-87
2023/08/07 03:44:03;;;;;;;1.73;0.70;;;13.40;99.90;;;;;;4957170;28;20054;-86
2023/08/07 03:46:28;;;;;;;2.53;0.90;;;13.50;99.90;;;;;;4958025;28;20081;-86
2023/08/07 03:48:54;;;;;;;3.03;1.02;;;13.40;99.90;;;;;;4974742;28;20031;-85
2023/08/07 03:51:20;;;;;;;3.25;0.95;;;13.50;99.90;;;;;;4957824;28;20518;-85
2023/08/07 03:53:45;;;;;;;1.42;0.90;;;13.50;99.90;;;;;;4957212;28;20034;-85
2023/08/07 03:56:11;;;;;;;2.85;0.77;;;13.50;99.90;;;;;;4975204;28;20511;-85
2023/08/07 03:58:36;;;;;;;6.13;0.80;;;13.50;99.90;;;;;;4975137;28;20070;-86
2023/08/07 04:01:02;;;;;;;6.03;0.90;;;13.50;99.90;;;;;;4975075;28;20543;-86
2023/08/07 04:03:28;;;;;;;1.90;0.90;;;13.50;99.90;;;;;;4975647;28;20053;-85
2023/08/07 04:05:54;;;;;;;2.55;0.90;;;13.50;99.90;;;;;;4957752;28;20027;-85
2023/08/07 04:08:21;;;;;;;4.38;1.27;;;13.50;99.90;;;;;;4975281;28;20074;-86
2023/08/07 04:11:04;;;;;;;3.00;1.02;;;13.50;99.90;;;;;;4975321;28;20031;-86
2023/08/07 04:13:31;;;;;;;2.97;0.90;;;13.50;99.90;;;;;;4958485;28;20043;-87
2023/08/07 04:15:57;;;;;;;3.50;1.00;;;13.50;99.90;;;;;;4957811;28;20029;-86
2023/08/07 04:18:22;;;;;;;1.85;0.77;;;13.50;99.90;;;;;;4958169;28;20407;-87
2023/08/07 04:20:55;;;;;;;7.63;1.13;;;13.50;99.90;;;;;;4957835;28;20031;-86
2023/08/07 04:23:21;;;;;;;2.08;0.90;;;13.50;99.90;;;;;;4975204;28;20053;-86
2023/08/07 04:25:47;;;;;;;2.33;0.70;;;13.50;99.90;;;;;;4975461;28;20129;-84
2023/08/07 04:28:13;;;;;;;2.58;0.90;;;13.60;99.90;;;;;;4958140;28;20042;-84
2023/08/07 04:30:40;;;;;;;1.98;0.70;;;13.60;99.90;;;;;;4958108;28;20031;-85
2023/08/07 04:33:05;;;;;;;2.38;0.77;;;13.60;99.90;;;;;;4975405;28;20034;-85
2023/08/07 04:35:31;;;;;;;3.15;0.90;;;13.60;99.90;;;;;;4961648;28;20027;-85
2023/08/07 04:37:57;;;;;;;1.42;0.77;;;13.60;99.90;;;;;;4977596;28;20027;-85
2023/08/07 04:40:22;;;;;;;1.80;0.98;;;13.60;99.90;;;;;;4961187;28;20027;-85
2023/08/07 04:42:51;;;;;;;2.08;0.75;;;13.60;99.90;;;;;;4960654;28;20043;-85
2023/08/07 04:45:17;;;;;;;2.78;0.70;;;13.60;99.90;;;;;;4961250;28;20054;-85
2023/08/07 04:47:42;;;;;;;3.58;0.82;;;13.60;99.90;;;;;;4978606;28;20034;-85
2023/08/07 04:50:08;;;;;;;5.25;0.85;;;13.70;99.90;;;;;;4977676;28;20035;-85
2023/08/07 04:52:34;;;;;;;1.83;0.77;;;13.70;99.90;;;;;;4961109;28;20039;-85
2023/08/07 04:55:00;;;;;;;3.10;1.05;;;13.70;99.90;;;;;;4960263;28;20037;-87
2023/08/07 04:57:26;;;;;;;2.58;0.93;;;13.70;99.90;;;;;;4978098;28;20093;-86
2023/08/07 04:59:52;;;;;;;2.80;0.82;;;13.80;99.90;;;;;;4960387;28;20030;-85
2023/08/07 05:02:17;;;;;;;3.75;1.20;;;13.80;99.90;;;;;;4960706;28;20041;-86
2023/08/07 05:04:43;;;;;;;1.15;0.75;;;13.80;99.90;;;;;;4961115;28;20372;-87
2023/08/07 05:07:09;;;;;;;5.43;0.98;;;13.80;99.90;;;;;;4960457;28;20030;-86
2023/08/07 05:09:35;;;;;;;5.15;1.00;;;13.70;99.90;;;;;;4978351;28;20027;-85
2023/08/07 05:12:01;;;;;;;5.43;0.70;;;13.80;99.90;;;;;;4960199;28;20037;-87
2023/08/07 05:14:27;;;;;;;4.13;1.08;;;13.80;99.90;;;;;;4960926;28;20062;-87
2023/08/07 05:16:52;;;;;;;5.20;1.83;;;13.80;99.90;;;;;;4977090;28;20077;-87
2023/08/07 05:19:18;;;;;;;2.13;0.80;;;13.80;99.90;;;;;;4960469;28;20081;-86
2023/08/07 05:21:44;;;;;;;4.22;0.80;;;13.80;99.90;;;;;;4960519;28;20030;-88
2023/08/07 05:24:09;;;;;;;4.10;0.80;;;13.90;99.90;;;;;;4959746;28;20027;-87
2023/08/07 05:26:35;;;;;;;4.05;0.85;;;13.90;99.90;;;;;;4960573;28;20126;-87
2023/08/07 05:29:00;;;;;;;2.50;0.88;;;13.80;99.90;;;;;;4960298;28;20027;-86
2023/08/07 05:31:26;;;;;;;2.45;0.70;;;13.90;99.90;;;;;;4960515;28;20443;-87
2023/08/07 05:33:52;;;;;;;1.73;1.05;;;13.90;99.90;;;;;;4960535;28;20027;-87
2023/08/07 05:36:17;;;;;;;1.50;0.82;;;13.90;99.90;;;;;;4960558;28;20023;-86
2023/08/07 05:38:46;;;;;;;3.55;0.90;;;13.90;99.90;;;;;;4960426;28;20080;-86
2023/08/07 05:41:11;;;;;;;4.80;0.90;;;13.90;99.90;;;;;;4959926;28;20078;-87
2023/08/07 05:43:37;;;;;;;4.10;0.82;;;14.00;99.90;;;;;;4959947;28;20407;-86
2023/08/07 05:46:03;;;;;;;2.00;0.80;;;13.90;99.90;;;;;;4975424;28;20027;-87
2023/08/07 05:48:28;;;;;;;4.53;0.70;;;14.00;99.90;;;;;;4960025;28;20081;-91
2023/08/07 05:50:54;;;;;;;1.17;0.80;;;14.10;99.90;;;;;;4976800;28;20519;-92
2023/08/07 05:53:19;;;;;;;2.15;0.70;;;14.10;99.90;;;;;;4977214;28;20109;-92
2023/08/07 05:55:45;;;;;;;3.65;0.88;;;14.20;99.90;;;;;;4960164;28;20027;-91
2023/08/07 05:58:11;;;;;;;4.20;0.70;;;14.20;99.90;;;;;;4976436;28;20407;-88
2023/08/07 06:00:37;;;;;;;3.00;0.80;;;14.20;99.90;;;;;;4960125;28;20027;-88
2023/08/07 06:03:02;;;;;;;2.45;0.80;;;14.20;99.90;;;;;;4959304;28;20062;-87
2023/08/07 06:05:28;;;;;;;3.00;0.70;;;14.30;99.90;;;;;;4959907;28;20038;-88
2023/08/07 06:07:54;;;;;;;2.83;1.30;;;14.30;99.90;;;;;;4975394;28;20436;-87
2023/08/07 06:10:19;;;;;;;2.05;0.77;;;14.30;99.90;;;;;;4976778;28;20031;-86
2023/08/07 06:12:45;;;;;;;3.28;0.90;;;14.40;99.90;;;;;;4959732;28;20031;-87
2023/08/07 06:15:11;;;;;;;5.65;1.00;;;14.40;99.90;;;;;;4959230;28;20105;-88
2023/08/07 06:17:36;;;;;;;2.33;0.70;;;14.40;99.90;;;;;;4959543;28;20090;-88
2023/08/07 06:20:04;;;;;;;4.72;1.08;;;14.40;99.90;;;;;;4976425;28;20030;-87
2023/08/07 06:22:30;;;;;;;4.40;0.88;;;14.30;99.90;;;;;;4976481;28;20031;-88
2023/08/07 06:24:55;;;;;;;4.85;0.98;;;14.30;99.90;;;;;;4975889;28;20034;-86
2023/08/07 06:27:21;;;;;;;2.15;0.95;;;14.30;99.90;;;;;;4959390;28;20035;-87
2023/08/07 06:29:47;;;;;;;6.43;3.45;;;14.40;99.90;;;;;;4959244;28;20023;-87
2023/08/07 06:32:12;;;;;;;1.83;0.90;;;14.40;99.90;;;;;;4958985;28;20375;-87
2023/08/07 06:34:38;;;;;;;2.63;0.80;;;14.50;99.90;;;;;;4959640;28;20110;-87
2023/08/07 06:37:05;;;;;;;1.25;0.70;;;14.50;99.90;;;;;;4959056;28;20027;-92
2023/08/07 06:39:31;;;;;;;1.45;0.90;;;14.60;99.90;;;;;;4976258;28;20033;-91
2023/08/07 06:41:56;;;;;;;3.03;1.10;;;14.60;99.90;;;;;;4958702;28;20033;-90
2023/08/07 06:44:22;;;;;;;3.90;1.17;;;14.60;99.90;;;;;;4959110;28;20047;-89
2023/08/07 06:46:47;;;;;;;1.30;0.70;;;14.60;99.90;;;;;;4958989;28;20054;-87
2023/08/07 06:49:13;;;;;;;5.72;1.08;;;14.60;99.90;;;;;;4958492;28;20042;-88
2023/08/07 06:51:39;;;;;;;1.45;0.80;;;14.60;99.90;;;;;;4958710;28;20062;-88
2023/08/07 06:54:04;;;;;;;3.13;0.85;;;14.60;99.90;;;;;;4975640;28;20035;-88
2023/08/07 06:56:30;;;;;;;1.50;0.82;;;14.70;99.90;;;;;;4975905;28;20084;-88
2023/08/07 06:58:55;;;;;;;1.58;0.90;;;14.70;99.90;;;;;;4958342;28;20437;-87
2023/08/07 07:01:21;;;;;;;1.00;0.68;;;14.70;99.90;;;;;;4958613;28;20042;-87
2023/08/07 07:03:52;;;;;;;2.03;1.20;;;14.80;99.90;;;;;;4961026;28;20023;-91
2023/08/07 07:06:17;;;;;;;3.75;1.13;;;14.90;99.90;;;;;;4992402;28;20169;-90
2023/08/07 07:08:43;;;;;;;9.23;1.20;;;14.90;99.90;;;;;;4979725;28;20035;-91
2023/08/07 07:11:09;;;;;;;4.82;1.08;;;14.90;99.90;;;;;;4965412;28;20027;-90
2023/08/07 07:13:34;;;;;;;4.85;1.00;;;14.90;99.90;;;;;;4974080;28;20030;-88
2023/08/07 07:16:00;;;;;;;3.10;0.95;;;14.90;99.90;;;;;;4973578;28;20023;-89
2023/08/07 07:18:26;;;;;;;2.83;1.00;;;14.90;99.90;;;;;;4962199;28;20062;-88
2023/08/07 07:21:00;;;;;;;4.22;1.10;;;14.90;99.90;;;;;;4989398;28;20085;-87
2023/08/07 07:23:25;;;;;;;4.07;1.00;;;15.00;99.90;;;;;;4989733;28;20030;-89
2023/08/07 07:25:51;;;;;;;3.40;0.77;;;15.00;99.90;;;;;;4976422;28;20086;-88
2023/08/07 07:28:17;;;;;;;2.53;0.82;;;15.00;99.90;;;;;;4978773;28;20031;-87
2023/08/07 07:30:42;;;;;;;1.85;0.80;;;15.10;99.90;;;;;;4973782;28;20487;-83
2023/08/07 07:33:08;;;;;;;2.38;0.90;;;15.00;99.90;;;;;;4990517;28;20121;-88
2023/08/07 07:35:38;;;;;;;3.35;0.77;;;15.00;99.90;;;;;;4971567;28;20023;-89
2023/08/07 07:38:04;;;;;;;1.75;0.90;;;15.00;99.90;;;;;;4989235;28;20022;-88
2023/08/07 07:40:30;;;;;;;1.23;0.80;;;15.00;99.90;;;;;;4982211;28;20030;-87
2023/08/07 07:42:55;;;;;;;3.47;0.98;;;15.00;99.90;;;;;;4988346;28;20038;-85
2023/08/07 07:45:21;;;;;;;2.25;1.10;;;15.00;99.90;;;;;;4990787;28;20042;-86
2023/08/07 07:47:47;;;;;;;2.75;0.68;;;15.00;99.90;;;;;;4973750;28;20026;-89
2023/08/07 07:50:13;;;;;;;3.55;0.90;;;15.00;99.90;;;;;;4967319;28;20030;-87
2023/08/07 07:52:39;;;;;;;3.88;0.80;;;15.00;99.90;;;;;;4986235;28;20114;-87
2023/08/07 07:55:05;;;;;;;2.05;0.70;;;15.00;99.90;;;;;;4989495;28;20057;-87
2023/08/07 07:57:31;;;;;;;1.95;0.80;;;15.00;99.90;;;;;;4991088;28;20034;-85
2023/08/07 07:59:57;;;;;;;3.67;1.13;;;15.00;99.90;;;;;;4988221;28;20054;-85
2023/08/07 08:02:25;;;;;;;2.28;0.65;;;15.10;99.90;;;;;;4958889;28;20062;-87
2023/08/07 08:04:52;;;;;;;4.25;0.70;;;15.10;99.90;;;;;;4977906;28;20085;-90
2023/08/07 08:07:17;;;;;;;3.88;0.85;;;15.10;99.90;;;;;;4978641;28;20031;-92
2023/08/07 08:09:43;;;;;;;4.50;0.82;;;15.20;99.90;;;;;;4973093;28;20030;-93
2023/08/07 08:12:09;;;;;;;3.08;0.70;;;15.20;99.90;;;;;;4992353;28;20039;-85
2023/08/07 08:14:35;;;;;;;2.45;0.70;;;15.40;99.90;;;;;;4995315;28;20467;-87
2023/08/07 08:17:00;;;;;;;3.17;1.10;;;15.40;99.90;;;;;;4986396;28;20022;-89
2023/08/07 08:19:26;;;;;;;0.73;0.60;;;15.50;99.90;;;;;;4993134;28;20030;-88
2023/08/07 08:21:52;;;;;;;1.25;0.60;;;15.50;99.90;;;;;;4980345;28;20450;-90
2023/08/07 08:24:18;;;;;;;2.22;0.55;;;15.50;99.90;;;;;;4989214;28;20043;-83
2023/08/07 08:26:43;;;;;;;2.00;0.98;;;15.60;99.90;;;;;;4987755;28;20048;-86
2023/08/07 08:29:09;;;;;;;1.30;0.63;;;15.70;99.90;;;;;;4965228;28;20113;-85
2023/08/07 08:31:35;;;;;;;3.10;1.10;;;15.70;99.90;;;;;;4993004;28;20125;-86
2023/08/07 08:34:00;;;;;;;1.30;0.75;;;15.70;99.90;;;;;;4994859;28;20122;-85
2023/08/07 08:36:26;;;;;;;1.67;0.80;;;15.80;99.90;;;;;;4996173;28;20698;-84
2023/08/07 08:38:52;;;;;;;4.18;0.80;;;15.90;99.90;;;;;;4979479;28;20117;-84
2023/08/07 08:41:19;;;;;;;3.28;0.65;;;15.90;99.90;;;;;;4991447;28;20030;-83
2023/08/07 08:43:46;;;;;;;5.30;0.82;;;16.00;99.90;;;;;;4980927;28;20050;-84
2023/08/07 08:46:18;;;;;;;2.30;0.63;;;16.10;99.90;;;;;;4989801;28;20163;-85
2023/08/07 08:48:49;;;;;;;3.33;0.60;;;16.10;99.90;;;;;;4990237;28;20026;-84
2023/08/07 08:51:17;;;;;;;2.22;0.52;;;16.20;99.90;;;;;;4980541;28;20595;-84
2023/08/07 08:53:43;;;;;;;3.83;0.73;;;16.20;99.90;;;;;;4986769;28;20550;-86
2023/08/07 08:56:09;;;;;;;0.95;0.50;;;16.20;99.90;;;;;;4977427;28;20065;-86
2023/08/07 08:58:59;;;;;;;1.00;0.60;;;16.30;99.90;;;;;;4992894;28;20534;-87
2023/08/07 09:01:25;;;;;;;2.05;0.80;;;16.40;99.90;;;;;;4974751;28;20037;-87
2023/08/07 09:03:52;;;;;;;2.75;0.60;;;16.60;99.90;;;;;;4981238;28;20035;-86
2023/08/07 09:06:18;;;;;;;1.17;0.70;;;16.60;99.90;;;;;;4970335;28;20026;-86
2023/08/07 09:08:45;;;;;;;3.58;0.70;;;16.60;99.90;;;;;;4978339;28;20027;-86
2023/08/07 09:11:15;;;;;;;1.98;0.90;;;16.70;99.90;;;;;;4989900;28;20019;-86
2023/08/07 09:13:42;;;;;;;3.15;0.88;;;16.70;99.90;;;;;;4993464;28;20065;-86
2023/08/07 09:16:10;;;;;;;1.77;0.80;;;16.70;99.90;;;;;;4988037;28;20479;-86
2023/08/07 09:18:35;;;;;;;1.73;0.80;;;16.70;99.90;;;;;;4996051;28;20026;-87
2023/08/07 09:21:01;;;;;;;2.33;0.90;;;16.80;99.90;;;;;;4966394;28;20166;-84
2023/08/07 09:23:27;;;;;;;2.63;1.00;;;16.90;99.90;;;;;;4977122;28;20043;-85
2023/08/07 09:26:03;;;;;;;2.58;0.80;;;17.00;99.90;;;;;;4976434;28;20058;-88
2023/08/07 09:28:30;;;;;;;1.55;0.70;;;17.10;99.90;;;;;;4966827;28;20046;-84
2023/08/07 09:30:56;;;;;;;1.13;0.60;;;17.10;99.90;;;;;;4984290;28;20957;-83
2023/08/07 09:33:30;;;;;;;3.47;0.73;;;17.10;99.90;;;;;;4978291;28;20515;-85
2023/08/07 09:36:00;;;;;;;3.42;0.80;;;17.10;99.90;;;;;;4991729;28;20102;-84
2023/08/07 09:38:32;;;;;;;2.67;1.10;;;17.10;99.90;;;;;;4984100;28;20029;-84
2023/08/07 09:40:59;;;;;;;3.05;1.00;;;17.00;99.90;;;;;;4965348;28;20034;-85
2023/08/07 09:43:25;;;;;;;1.17;0.70;;;17.10;99.90;;;;;;4986913;28;20073;-82
2023/08/07 09:45:50;;;;;;;2.83;0.80;;;17.20;99.90;;;;;;4979716;28;20050;-83
2023/08/07 09:48:27;;;;;;;2.08;0.70;;;17.30;99.90;;;;;;4958246;28;20077;-86
2023/08/07 09:50:54;;;;;;;1.80;0.90;;;17.30;99.90;;;;;;4990450;28;20038;-85
2023/08/07 09:53:27;;;;;;;3.40;1.40;;;17.30;99.90;;;;;;4971991;28;20035;-85
2023/08/07 09:55:56;;;;;;;2.13;1.05;;;17.40;99.90;;;;;;4974114;28;20129;-83
2023/08/07 09:58:24;;;;;;;2.72;1.35;;;17.40;99.90;;;;;;4962500;28;20034;-84
2023/08/07 10:00:53;;;;;;;2.28;0.90;;;17.50;99.90;;;;;;4960346;28;20037;-88
2023/08/07 10:03:19;;;;;;;3.15;0.82;;;17.60;99.90;;;;;;4988182;28;20109;-79
2023/08/07 10:05:46;;;;;;;1.67;1.05;;;17.50;99.90;;;;;;4979051;28;20090;-82
2023/08/07 10:08:12;;;;;;;4.43;0.95;;;17.60;99.90;;;;;;4974613;28;20035;-83
2023/08/07 10:10:39;;;;;;;2.60;0.70;;;17.50;99.90;;;;;;4968423;28;20487;-83
2023/08/07 10:13:05;;;;;;;1.85;0.80;;;17.50;99.90;;;;;;4958017;28;20471;-85
2023/08/07 10:15:36;;;;;;;2.70;0.80;;;17.40;99.90;;;;;;4958491;28;20034;-85
2023/08/07 10:18:02;;;;;;;1.52;0.82;;;17.50;99.90;;;;;;4957318;28;20027;-82
2023/08/07 10:20:29;;;;;;;1.25;0.70;;;17.60;99.90;;;;;;4960628;28;20034;-83
2023/08/07 10:23:07;;;;;;;1.20;0.80;;;17.60;99.90;;;;;;4993459;28;20422;-83
2023/08/07 10:25:34;;;;;;;2.75;0.90;;;17.90;99.90;;;;;;4974935;28;20058;-82
2023/08/07 10:28:01;;;;;;;2.17;0.77;;;18.00;99.90;;;;;;4994270;28;20109;-81
2023/08/07 10:30:28;;;;;;;2.75;0.80;;;18.20;99.90;;;;;;4983293;28;20104;-82
2023/08/07 10:32:54;;;;;;;3.20;0.82;;;18.20;99.70;;;;;;4988051;28;20038;-83
2023/08/07 10:35:24;;;;;;;1.60;1.00;;;18.20;99.20;;;;;;4992570;28;20026;-83
2023/08/07 10:37:51;;;;;;;2.80;0.80;;;18.10;99.40;;;;;;4977309;28;20029;-83
2023/08/07 10:40:17;;;;;;;1.52;0.80;;;18.10;99.90;;;;;;4993415;28;20041;-83
2023/08/07 10:42:54;;;;;;;1.10;0.70;;;18.00;99.20;;;;;;4977653;28;20542;-82
2023/08/07 10:45:22;;;;;;;1.60;0.90;;;17.90;98.80;;;;;;4973733;28;20053;-82
2023/08/07 10:48:13;;;;;;;2.53;0.90;;;17.80;99.30;;;;;;4990154;28;20031;-83
2023/08/07 10:50:57;;;;;;;2.63;1.30;;;17.80;99.10;;;;;;4957233;28;20507;-84
2023/08/07 10:53:46;;;;;;;0.90;0.60;;;17.80;98.90;;;;;;4954683;29;20050;-82
2023/08/07 10:56:37;;;;;;;1.08;0.80;;;17.80;98.80;;;;;;4970234;28;20508;-84
2023/08/07 10:59:10;;;;;;;1.38;0.68;;;17.80;99.30;;;;;;4974963;28;20026;-84
2023/08/07 11:01:42;;;;;;;2.05;0.73;;;17.70;99.70;;;;;;4990437;28;20031;-84
2023/08/07 11:04:12;;;;;;;1.48;0.90;;;17.70;99.60;;;;;;4989797;28;20033;-84
2023/08/07 11:06:39;;;;;;;2.15;1.02;;;17.70;99.90;;;;;;4973780;28;20480;-83
2023/08/07 11:09:08;;;;;;;2.92;0.80;;;17.60;99.90;;;;;;4978888;28;20106;-83
2023/08/07 11:11:40;;;;;;;1.95;0.80;;;17.70;99.90;;;;;;4989206;28;20381;-83
2023/08/07 11:14:07;;;;;;;1.48;0.70;;;17.70;99.90;;;;;;4970408;28;20090;-84
2023/08/07 11:16:34;;;;;;;1.90;0.70;;;17.70;99.90;;;;;;4964121;28;20031;-84
2023/08/07 11:19:00;;;;;;;3.35;0.55;;;17.70;99.90;;;;;;4986114;28;20023;-81
2023/08/07 11:21:26;;;;;;;3.50;1.25;;;17.60;99.90;;;;;;4970851;28;20035;-84
2023/08/07 11:23:51;;;;;;;2.40;0.70;;;17.60;99.70;;;;;;4970654;28;20029;-84
2023/08/07 11:26:17;;;;;;;0.93;0.50;;;17.60;98.70;;;;;;4970140;28;20487;-84
2023/08/07 11:28:44;;;;;;;1.55;0.50;;;17.60;98.50;;;;;;4954953;28;20039;-83
2023/08/07 11:31:10;;;;;;;1.52;0.80;;;17.50;98.50;;;;;;4974136;28;20031;-83
2023/08/07 11:33:36;;;;;;;1.58;0.60;;;17.60;98.50;;;;;;4988615;28;20420;-83
2023/08/07 11:36:02;;;;;;;3.38;1.00;;;17.70;98.60;;;;;;4983908;28;20070;-80
2023/08/07 11:38:44;;;;;;;0.88;0.60;;;17.80;98.30;;;;;;4970217;28;20059;-84
2023/08/07 11:41:11;;;;;;;3.08;0.90;;;17.80;98.10;;;;;;4968522;28;20031;-86
2023/08/07 11:43:37;;;;;;;4.05;0.80;;;17.90;98.20;;;;;;4988104;28;20059;-84
2023/08/07 11:46:05;;;;;;;1.88;0.60;;;18.00;98.30;;;;;;4973941;28;20076;-83
2023/08/07 11:48:33;;;;;;;2.95;0.57;;;18.00;98.50;;;;;;4973904;28;20106;-84
2023/08/07 11:51:00;;;;;;;1.45;0.70;;;18.10;98.20;;;;;;4973537;28;20023;-81
2023/08/07 11:53:27;;;;;;;1.85;0.63;;;18.10;98.50;;;;;;4973800;28;20476;-82
2023/08/07 11:56:06;;;;;;;1.80;0.63;;;18.10;98.40;;;;;;4988287;28;20539;-83
2023/08/07 11:58:39;;;;;;;2.22;0.70;;;18.20;98.30;;;;;;4968618;28;20026;-84
2023/08/07 12:01:06;;;;;;;1.42;0.60;;;18.30;98.30;;;;;;4965796;28;20090;-82
2023/08/07 12:03:36;;;;;;;2.28;0.70;;;18.40;98.00;;;;;;4989199;28;20027;-85
2023/08/07 12:06:04;;;;;;;1.08;0.70;;;18.60;98.00;;;;;;4961530;28;20538;-84
2023/08/07 12:08:37;;;;;;;1.92;0.73;;;18.70;97.00;;;;;;4968704;28;20051;-85
2023/08/07 12:11:05;;;;;;;1.25;0.80;;;18.90;96.70;;;;;;4986996;28;20023;-82
2023/08/07 12:13:32;;;;;;;2.35;0.80;;;19.00;96.90;;;;;;4969134;28;20043;-83
2023/08/07 12:15:58;;;;;;;2.45;0.80;;;19.00;97.00;;;;;;4968347;28;20094;-85
2023/08/07 12:18:26;;;;;;;2.08;0.95;;;19.10;96.40;;;;;;4968252;28;20472;-86
2023/08/07 12:21:06;;;;;;;1.55;0.65;;;19.30;96.40;;;;;;4964517;28;20039;-85
2023/08/07 12:23:36;;;;;;;1.85;0.80;;;19.30;96.20;;;;;;4991756;28;20074;-84
2023/08/07 12:26:02;;;;;;;2.88;0.82;;;19.30;96.10;;;;;;4991732;28;20035;-83
2023/08/07 12:28:28;;;;;;;2.45;0.77;;;19.30;95.60;;;;;;4967031;28;20480;-85
2023/08/07 12:30:53;;;;;;;1.65;0.93;;;19.20;95.40;;;;;;4981617;28;20045;-84
2023/08/07 12:33:19;;;;;;;4.28;0.85;;;19.20;95.40;;;;;;4968018;28;20084;-84
2023/08/07 12:35:45;;;;;;;1.67;1.02;;;19.40;96.00;;;;;;4987922;28;20439;-85
2023/08/07 12:38:13;;;;;;;1.17;0.77;;;19.50;94.50;;;;;;4990869;28;20038;-85
2023/08/07 12:40:40;;;;;;;2.65;0.82;;;19.70;94.60;;;;;;4974765;28;20018;-87
2023/08/07 12:43:05;;;;;;;1.02;0.85;;;19.80;94.60;;;;;;4986608;28;20132;-86
2023/08/07 12:45:32;;;;;;;1.33;0.90;;;19.80;94.20;;;;;;4992402;28;20492;-86
2023/08/07 12:47:58;;;;;;;2.03;0.60;;;19.70;94.30;;;;;;4972489;28;20074;-85